Time;durP1;ratioP1;P1;durP2;ratioP2;P2;SDS_P1;SDS_P2;PMS_P1;PMS_P2;Temp;Humidity;BMP_temperature;BMP_pressure;BME280_temperature;BME280_humidity;BME280_pressure;Samples;Min_cycle;Max_cycle;Signal;HPM_P1;HPM_P2
2021/11/04 00:01:10;;;;;;;139.73;33.58;;;;;;;;;;5047285;28;20400;-73
2021/11/04 00:03:36;;;;;;;225.55;36.05;;;;;;;;;;5041425;28;20051;-73
2021/11/04 00:06:02;;;;;;;196.65;34.35;;;;;;;;;;5043273;28;20060;-73
2021/11/04 00:08:29;;;;;;;172.20;35.10;;;;;;;;;;5031343;28;20466;-73
2021/11/04 00:10:55;;;;;;;251.63;38.50;;;;;;;;;;5042342;28;20338;-73
2021/11/04 00:13:21;;;;;;;211.43;35.20;;;;;;;;;;5033591;28;20119;-73
2021/11/04 00:15:48;;;;;;;285.40;41.33;;;;;;;;;;5052215;28;20049;-73
2021/11/04 00:18:14;;;;;;;264.33;35.83;;;;;;;;;;5049249;28;20400;-73
2021/11/04 00:20:40;;;;;;;269.02;37.80;;;;;;;;;;5051776;28;20071;-73
2021/11/04 00:23:06;;;;;;;273.58;40.60;;;;;;;;;;5076444;28;20045;-73
2021/11/04 00:25:32;;;;;;;421.65;45.03;;;;;;;;;;5048997;28;20087;-73
2021/11/04 00:27:58;;;;;;;242.13;36.78;;;;;;;;;;5073473;28;20045;-73
2021/11/04 00:30:24;;;;;;;275.33;38.83;;;;;;;;;;5043213;28;20087;-73
2021/11/04 00:32:52;;;;;;;253.77;36.00;;;;;;;;;;5073704;28;20053;-73
2021/11/04 00:35:18;;;;;;;247.80;38.45;;;;;;;;;;5079848;28;20049;-73
2021/11/04 00:37:45;;;;;;;262.55;36.42;;;;;;;;;;5056625;28;20345;-73
2021/11/04 00:40:12;;;;;;;275.55;32.70;;;;;;;;;;5049983;28;20075;-73
2021/11/04 00:42:39;;;;;;;250.65;34.92;;;;;;;;;;5052069;28;20045;-73
2021/11/04 00:45:06;;;;;;;233.43;32.83;;;;;;;;;;5049666;28;20084;-73
2021/11/04 00:47:32;;;;;;;296.05;35.42;;;;;;;;;;5050423;28;20041;-73
2021/11/04 00:49:58;;;;;;;322.65;37.15;;;;;;;;;;5045362;28;20151;-73
2021/11/04 00:52:25;;;;;;;283.00;34.10;;;;;;;;;;5045752;28;20451;-73
2021/11/04 00:54:51;;;;;;;274.25;37.72;;;;;;;;;;5045245;28;20450;-73
2021/11/04 00:57:17;;;;;;;257.77;36.42;;;;;;;;;;5044979;28;20050;-73
2021/11/04 00:59:43;;;;;;;277.92;37.65;;;;;;;;;;5050472;28;20052;-73
2021/11/04 01:02:10;;;;;;;278.15;36.92;;;;;;;;;;5050688;28;20045;-73
2021/11/04 01:04:36;;;;;;;231.70;33.40;;;;;;;;;;5046713;28;20094;-73
2021/11/04 01:07:03;;;;;;;298.23;34.88;;;;;;;;;;5045361;28;20056;-73
2021/11/04 01:09:29;;;;;;;273.70;38.08;;;;;;;;;;5037985;28;20049;-73
2021/11/04 01:11:55;;;;;;;298.33;37.55;;;;;;;;;;5041240;28;20041;-73
2021/11/04 01:14:21;;;;;;;291.30;38.10;;;;;;;;;;5041824;28;20044;-73
2021/11/04 01:16:47;;;;;;;358.05;41.83;;;;;;;;;;5046135;28;20397;-73
2021/11/04 01:19:14;;;;;;;314.05;40.67;;;;;;;;;;5033768;28;20095;-73
2021/11/04 01:21:41;;;;;;;374.50;42.05;;;;;;;;;;5052847;28;20051;-73
2021/11/04 01:24:07;;;;;;;293.13;39.17;;;;;;;;;;5046049;28;20045;-73
2021/11/04 01:26:34;;;;;;;319.77;42.25;;;;;;;;;;5046075;28;20060;-73
2021/11/04 01:29:00;;;;;;;293.73;41.17;;;;;;;;;;5047899;28;20040;-73
2021/11/04 01:31:26;;;;;;;415.13;47.00;;;;;;;;;;5048185;28;20041;-73
2021/11/04 01:33:52;;;;;;;482.17;47.72;;;;;;;;;;5044155;28;20051;-73
2021/11/04 01:36:18;;;;;;;493.85;54.72;;;;;;;;;;5042086;28;20067;-73
2021/11/04 01:38:44;;;;;;;426.63;47.42;;;;;;;;;;5070592;28;20041;-73
2021/11/04 01:41:10;;;;;;;377.95;47.97;;;;;;;;;;5047973;28;20041;-73
2021/11/04 01:43:37;;;;;;;398.63;50.22;;;;;;;;;;5048567;28;20072;-73
2021/11/04 01:46:03;;;;;;;281.65;41.75;;;;;;;;;;5051555;28;20048;-73
2021/11/04 01:48:29;;;;;;;353.73;43.33;;;;;;;;;;5045274;28;20131;-73
2021/11/04 01:50:56;;;;;;;254.30;39.05;;;;;;;;;;5070024;28;20045;-73
2021/11/04 01:53:23;;;;;;;313.45;42.38;;;;;;;;;;5039849;28;20128;-73
2021/11/04 01:55:49;;;;;;;275.25;38.15;;;;;;;;;;5070780;28;20034;-73
2021/11/04 01:58:16;;;;;;;294.17;42.13;;;;;;;;;;5046044;28;20052;-73
2021/11/04 02:00:43;;;;;;;318.92;40.95;;;;;;;;;;5047425;28;20099;-73
2021/11/04 02:03:16;;;;;;;297.65;39.47;;;;;;;;;;5047578;28;20049;-73
2021/11/04 02:05:51;;;;;;;361.90;44.70;;;;;;;;;;5077913;28;20044;-73
2021/11/04 02:08:25;;;;;;;283.52;42.05;;;;;;;;;;5045785;28;20041;-73
2021/11/04 02:10:51;;;;;;;;;;;;;;;;;;5075160;28;20049;-73
2021/11/04 02:13:22;;;;;;;335.40;44.92;;;;;;;;;;5047424;28;19941;-73
2021/11/04 02:15:50;;;;;;;345.67;44.30;;;;;;;;;;5052234;28;20029;-73
2021/11/04 02:18:18;;;;;;;364.23;50.03;;;;;;;;;;5039924;28;20098;-73
2021/11/04 02:20:52;;;;;;;372.52;47.17;;;;;;;;;;5060860;28;20132;-73
2021/11/04 02:23:27;;;;;;;372.63;47.28;;;;;;;;;;5044882;28;20114;-73
2021/11/04 02:25:53;;;;;;;401.33;51.33;;;;;;;;;;5049525;28;20041;-73
2021/11/04 02:28:20;;;;;;;393.33;51.05;;;;;;;;;;5032326;28;20037;-73
2021/11/04 02:30:47;;;;;;;379.50;48.42;;;;;;;;;;5050098;28;20041;-73
2021/11/04 02:33:14;;;;;;;327.13;46.65;;;;;;;;;;5054202;28;20349;-73
2021/11/04 02:35:48;;;;;;;458.30;56.00;;;;;;;;;;5049876;28;20048;-73
2021/11/04 02:38:15;;;;;;;384.73;53.03;;;;;;;;;;5048863;28;20112;-73
2021/11/04 02:40:41;;;;;;;386.02;51.50;;;;;;;;;;5045027;28;20121;-73
2021/11/04 02:43:08;;;;;;;400.90;51.75;;;;;;;;;;5049240;28;20442;-73
2021/11/04 02:45:34;;;;;;;455.25;51.13;;;;;;;;;;5045368;28;20124;-73
2021/11/04 02:48:01;;;;;;;483.10;54.95;;;;;;;;;;5045504;28;20075;-73
2021/11/04 02:50:27;;;;;;;392.25;48.78;;;;;;;;;;5074917;28;20041;-73
2021/11/04 02:52:56;;;;;;;469.92;55.67;;;;;;;;;;5048426;28;20073;-73
2021/11/04 02:55:32;;;;;;;492.70;56.78;;;;;;;;;;5047597;28;20389;-76
2021/11/04 02:57:58;;;;;;;405.48;54.15;;;;;;;;;;5055997;28;20052;-73
2021/11/04 03:00:24;;;;;;;516.00;57.55;;;;;;;;;;5051955;28;20481;-73
2021/11/04 03:02:51;;;;;;;427.85;53.47;;;;;;;;;;5074245;28;20049;-73
2021/11/04 03:05:17;;;;;;;627.47;63.22;;;;;;;;;;5050052;28;20033;-73
2021/11/04 03:07:44;;;;;;;516.75;57.03;;;;;;;;;;5074909;28;20111;-73
2021/11/04 03:10:10;;;;;;;435.73;51.42;;;;;;;;;;5050298;28;20389;-73
2021/11/04 03:12:36;;;;;;;372.02;48.40;;;;;;;;;;5052813;28;20040;-73
2021/11/04 03:15:03;;;;;;;498.70;57.40;;;;;;;;;;5046504;28;20088;-73
2021/11/04 03:17:29;;;;;;;413.20;52.00;;;;;;;;;;5068094;28;20049;-73
2021/11/04 03:19:56;;;;;;;384.63;50.47;;;;;;;;;;5048420;28;20049;-73
2021/11/04 03:22:23;;;;;;;449.23;53.15;;;;;;;;;;5051141;28;20132;-73
2021/11/04 03:24:49;;;;;;;572.63;58.92;;;;;;;;;;5055304;28;20089;-73
2021/11/04 03:27:16;;;;;;;514.78;54.72;;;;;;;;;;5044250;28;20052;-73
2021/11/04 03:29:43;;;;;;;533.35;57.45;;;;;;;;;;5048417;28;20102;-73
2021/11/04 03:32:13;;;;;;;457.85;51.85;;;;;;;;;;5045331;28;20551;-73
2021/11/04 03:34:39;;;;;;;402.15;50.10;;;;;;;;;;5042968;28;20086;-73
2021/11/04 03:37:06;;;;;;;409.52;51.28;;;;;;;;;;5040153;28;20129;-73
2021/11/04 03:39:33;;;;;;;388.20;48.00;;;;;;;;;;5068384;28;20045;-73
2021/11/04 03:42:01;;;;;;;352.42;48.50;;;;;;;;;;5048044;28;20124;-73
2021/11/04 03:44:27;;;;;;;389.85;51.33;;;;;;;;;;5049472;28;20041;-73
2021/11/04 03:46:54;;;;;;;499.90;58.05;;;;;;;;;;5043695;28;20072;-73
2021/11/04 03:49:21;;;;;;;517.38;57.58;;;;;;;;;;5050919;28;20063;-73
2021/11/04 03:51:49;;;;;;;427.67;53.95;;;;;;;;;;5057744;28;20056;-73
2021/11/04 03:54:16;;;;;;;436.83;54.05;;;;;;;;;;5051381;28;20582;-73
2021/11/04 03:56:42;;;;;;;502.45;58.20;;;;;;;;;;5049690;28;20049;-73
2021/11/04 03:59:09;;;;;;;467.17;56.13;;;;;;;;;;5037242;28;20044;-73
2021/11/04 04:01:35;;;;;;;452.48;57.60;;;;;;;;;;5048905;28;20053;-70
2021/11/04 04:04:02;;;;;;;480.27;59.28;;;;;;;;;;5047668;28;20049;-73
2021/11/04 04:06:28;;;;;;;508.73;59.30;;;;;;;;;;5072062;28;20052;-73
2021/11/04 04:08:55;;;;;;;557.83;64.10;;;;;;;;;;5048436;28;20492;-73
2021/11/04 04:11:23;;;;;;;532.10;62.00;;;;;;;;;;5051459;28;20127;-73
2021/11/04 04:13:50;;;;;;;427.08;57.55;;;;;;;;;;5049687;28;20544;-73
2021/11/04 04:16:17;;;;;;;401.40;54.78;;;;;;;;;;5052695;28;20048;-73
2021/11/04 04:18:43;;;;;;;522.58;60.95;;;;;;;;;;5050481;28;20392;-73
2021/11/04 04:21:09;;;;;;;506.60;60.17;;;;;;;;;;5043043;28;20069;-73
2021/11/04 04:23:36;;;;;;;410.08;54.25;;;;;;;;;;5073737;28;20045;-73
2021/11/04 04:26:02;;;;;;;466.02;56.72;;;;;;;;;;5072779;28;20041;-73
2021/11/04 04:28:28;;;;;;;414.10;52.72;;;;;;;;;;5048991;28;20059;-73
2021/11/04 04:30:54;;;;;;;366.50;50.70;;;;;;;;;;5050008;28;20398;-73
2021/11/04 04:33:20;;;;;;;464.30;58.75;;;;;;;;;;5073408;28;20052;-73
2021/11/04 04:35:47;;;;;;;448.20;56.65;;;;;;;;;;5048956;28;20128;-73
2021/11/04 04:38:13;;;;;;;422.83;55.22;;;;;;;;;;5048668;28;20128;-73
2021/11/04 04:40:39;;;;;;;421.33;55.75;;;;;;;;;;5077874;28;20124;-73
2021/11/04 04:43:05;;;;;;;470.25;57.13;;;;;;;;;;5048265;28;20382;-73
2021/11/04 04:45:31;;;;;;;359.02;51.85;;;;;;;;;;5040085;28;20424;-73
2021/11/04 04:47:57;;;;;;;379.17;54.88;;;;;;;;;;5045175;28;20045;-73
2021/11/04 04:50:23;;;;;;;367.73;57.80;;;;;;;;;;5067517;28;20045;-73
2021/11/04 04:52:49;;;;;;;395.00;55.03;;;;;;;;;;5072422;28;20056;-73
2021/11/04 04:55:16;;;;;;;326.98;51.75;;;;;;;;;;5046752;28;20040;-73
2021/11/04 04:57:42;;;;;;;363.60;52.92;;;;;;;;;;5052500;28;20037;-73
2021/11/04 05:00:11;;;;;;;280.25;52.65;;;;;;;;;;5059122;28;20124;-73
2021/11/04 05:02:38;;;;;;;332.88;52.78;;;;;;;;;;5056881;28;20519;-73
2021/11/04 05:05:05;;;;;;;375.63;56.45;;;;;;;;;;5051651;28;20115;-73
2021/11/04 05:07:31;;;;;;;275.33;51.30;;;;;;;;;;5071436;28;20447;-73
2021/11/04 05:09:57;;;;;;;337.20;53.67;;;;;;;;;;5072723;28;20537;-73
2021/11/04 05:12:23;;;;;;;393.98;55.95;;;;;;;;;;5074843;28;20064;-73
2021/11/04 05:14:49;;;;;;;340.30;51.97;;;;;;;;;;5045210;28;20437;-73
2021/11/04 05:17:15;;;;;;;315.55;52.40;;;;;;;;;;5046234;28;20048;-73
2021/11/04 05:19:41;;;;;;;340.73;53.40;;;;;;;;;;5052449;28;20112;-73
2021/11/04 05:22:07;;;;;;;397.13;55.35;;;;;;;;;;5049347;28;20064;-73
2021/11/04 05:24:34;;;;;;;355.58;52.38;;;;;;;;;;5049905;28;20052;-73
2021/11/04 05:27:01;;;;;;;401.50;51.78;;;;;;;;;;5041517;28;20051;-73
2021/11/04 05:29:27;;;;;;;284.48;49.90;;;;;;;;;;5041998;28;20088;-73
2021/11/04 05:31:54;;;;;;;391.02;51.13;;;;;;;;;;5045391;28;20102;-73
2021/11/04 05:34:20;;;;;;;348.45;49.50;;;;;;;;;;5045948;28;20135;-73
2021/11/04 05:36:46;;;;;;;349.02;49.53;;;;;;;;;;5050156;28;20059;-73
2021/11/04 05:39:12;;;;;;;356.70;51.03;;;;;;;;;;5051631;28;20141;-73
2021/11/04 05:41:38;;;;;;;352.83;49.50;;;;;;;;;;5043747;28;20177;-73
2021/11/04 05:44:05;;;;;;;324.00;51.22;;;;;;;;;;5051581;28;20040;-73
2021/11/04 05:46:31;;;;;;;371.02;49.95;;;;;;;;;;5045740;28;20399;-73
2021/11/04 05:48:57;;;;;;;391.17;51.40;;;;;;;;;;5048374;28;20036;-73
2021/11/04 05:51:23;;;;;;;359.25;52.28;;;;;;;;;;5042988;28;20190;-73
2021/11/04 05:53:49;;;;;;;275.13;49.20;;;;;;;;;;5055414;28;20159;-73
2021/11/04 05:56:15;;;;;;;320.02;50.13;;;;;;;;;;5050134;28;20179;-73
2021/11/04 05:58:41;;;;;;;301.13;48.90;;;;;;;;;;5044588;28;20099;-72
2021/11/04 06:01:08;;;;;;;278.60;48.75;;;;;;;;;;5041373;28;20417;-73
2021/11/04 06:03:34;;;;;;;222.25;47.72;;;;;;;;;;5045070;28;20052;-72
2021/11/04 06:06:00;;;;;;;207.93;44.28;;;;;;;;;;5052748;28;20048;-74
2021/11/04 06:08:26;;;;;;;321.33;49.45;;;;;;;;;;5048355;28;20045;-74
2021/11/04 06:10:52;;;;;;;239.23;47.22;;;;;;;;;;5046923;28;20041;-74
2021/11/04 06:13:18;;;;;;;202.32;47.17;;;;;;;;;;5047780;28;20098;-73
2021/11/04 06:15:45;;;;;;;261.63;47.70;;;;;;;;;;5046455;28;20410;-74
2021/11/04 06:18:11;;;;;;;216.82;43.22;;;;;;;;;;5048336;28;20037;-74
2021/11/04 06:20:37;;;;;;;239.15;46.17;;;;;;;;;;5044854;28;20099;-74
2021/11/04 06:23:03;;;;;;;205.05;44.20;;;;;;;;;;5049462;28;20481;-71
2021/11/04 06:25:29;;;;;;;203.27;43.65;;;;;;;;;;5047070;28;20049;-74
2021/11/04 06:27:55;;;;;;;200.63;44.53;;;;;;;;;;5048690;28;20167;-74
2021/11/04 06:30:22;;;;;;;140.05;40.30;;;;;;;;;;5048560;28;20037;-73
2021/11/04 06:32:49;;;;;;;135.15;41.50;;;;;;;;;;5046889;28;20059;-71
2021/11/04 06:35:16;;;;;;;159.77;41.25;;;;;;;;;;5047118;28;20508;-71
2021/11/04 06:37:43;;;;;;;160.18;41.95;;;;;;;;;;5047422;28;20060;-71
2021/11/04 06:40:09;;;;;;;183.52;40.92;;;;;;;;;;5049549;28;20033;-71
2021/11/04 06:42:36;;;;;;;144.68;39.22;;;;;;;;;;5050291;28;20060;-70
2021/11/04 06:45:04;;;;;;;163.52;40.78;;;;;;;;;;5049677;28;20033;-71
2021/11/04 06:47:32;;;;;;;128.73;39.08;;;;;;;;;;5062818;28;20056;-71
2021/11/04 06:49:59;;;;;;;126.00;38.10;;;;;;;;;;5071696;28;20041;-70
2021/11/04 06:52:26;;;;;;;126.15;39.05;;;;;;;;;;5048896;28;20067;-69
2021/11/04 06:54:56;;;;;;;116.15;39.35;;;;;;;;;;5045381;28;20048;-69
2021/11/04 06:57:24;;;;;;;129.95;37.40;;;;;;;;;;5074776;28;20052;-70
2021/11/04 06:59:51;;;;;;;116.35;38.30;;;;;;;;;;5071476;28;20041;-69
2021/11/04 07:02:29;;;;;;;114.75;37.40;;;;;;;;;;5046215;28;20136;-69
2021/11/04 07:04:56;;;;;;;116.28;37.15;;;;;;;;;;5047012;28;20123;-69
2021/11/04 07:07:23;;;;;;;112.78;36.08;;;;;;;;;;5044764;28;20469;-69
2021/11/04 07:09:50;;;;;;;109.65;37.45;;;;;;;;;;5044227;28;20481;-70
2021/11/04 07:12:16;;;;;;;119.90;34.88;;;;;;;;;;5043399;28;20053;-70
2021/11/04 07:14:43;;;;;;;113.13;35.25;;;;;;;;;;5043772;28;20056;-70
2021/11/04 07:17:10;;;;;;;169.65;37.05;;;;;;;;;;5043216;28;20049;-70
2021/11/04 07:19:37;;;;;;;126.88;38.70;;;;;;;;;;5072847;28;20061;-70
2021/11/04 07:22:08;;;;;;;125.22;37.65;;;;;;;;;;5044831;28;20041;-69
2021/11/04 07:24:42;;;;;;;170.10;38.63;;;;;;;;;;5050753;28;20119;-70
2021/11/04 07:27:17;;;;;;;154.95;36.83;;;;;;;;;;5046586;28;20056;-71
2021/11/04 07:29:45;;;;;;;127.15;36.90;;;;;;;;;;5049192;28;20052;-76
2021/11/04 07:32:15;;;;;;;213.65;39.60;;;;;;;;;;5049160;28;20045;-70
2021/11/04 07:34:44;;;;;;;370.77;42.97;;;;;;;;;;5050639;28;20062;-68
2021/11/04 07:37:11;;;;;;;419.35;44.88;;;;;;;;;;5049017;28;20484;-69
2021/11/04 07:39:38;;;;;;;462.40;45.70;;;;;;;;;;5051256;28;20041;-69
2021/11/04 07:42:07;;;;;;;342.42;38.40;;;;;;;;;;5048745;28;20405;-69
2021/11/04 07:44:34;;;;;;;230.68;37.25;;;;;;;;;;5050002;28;20041;-68
2021/11/04 07:47:01;;;;;;;153.00;34.03;;;;;;;;;;5046422;28;20057;-69
2021/11/04 07:49:27;;;;;;;136.73;34.55;;;;;;;;;;5049654;28;20029;-69
2021/11/04 07:51:58;;;;;;;288.63;36.55;;;;;;;;;;5051191;28;20044;-71
2021/11/04 07:54:24;;;;;;;247.35;35.10;;;;;;;;;;5051291;28;20049;-72
2021/11/04 07:56:50;;;;;;;217.60;35.13;;;;;;;;;;5051522;28;20064;-72
2021/11/04 07:59:17;;;;;;;235.55;37.83;;;;;;;;;;5052708;28;20350;-72
2021/11/04 08:01:43;;;;;;;215.00;37.17;;;;;;;;;;5050717;28;20049;-72
2021/11/04 08:04:09;;;;;;;123.05;35.25;;;;;;;;;;5052634;28;20107;-72
2021/11/04 08:06:35;;;;;;;405.25;48.28;;;;;;;;;;5052657;28;20094;-71
2021/11/04 08:09:03;;;;;;;123.13;36.72;;;;;;;;;;5050628;28;20477;-71
2021/11/04 08:11:29;;;;;;;386.92;46.33;;;;;;;;;;5052441;28;20056;-71
2021/11/04 08:13:55;;;;;;;133.95;34.80;;;;;;;;;;5052140;28;20041;-71
2021/11/04 08:16:22;;;;;;;120.72;34.10;;;;;;;;;;5050629;28;20041;-70
2021/11/04 08:18:48;;;;;;;130.73;36.75;;;;;;;;;;5050976;28;20048;-71
2021/11/04 08:21:14;;;;;;;118.18;32.72;;;;;;;;;;5080502;28;20050;-71
2021/11/04 08:23:40;;;;;;;234.70;41.55;;;;;;;;;;5051979;28;20116;-71
2021/11/04 08:26:07;;;;;;;126.10;33.08;;;;;;;;;;5051010;28;20048;-71
2021/11/04 08:28:34;;;;;;;95.97;33.33;;;;;;;;;;5051296;28;20088;-71
2021/11/04 08:31:00;;;;;;;248.68;39.08;;;;;;;;;;5050090;28;20052;-77
2021/11/04 08:33:26;;;;;;;583.25;53.42;;;;;;;;;;5052343;28;20083;-71
2021/11/04 08:35:52;;;;;;;154.77;34.13;;;;;;;;;;5052826;28;20130;-71
2021/11/04 08:38:18;;;;;;;212.18;36.10;;;;;;;;;;5081304;28;20047;-71
2021/11/04 08:40:44;;;;;;;137.50;34.42;;;;;;;;;;5052389;28;20385;-71
2021/11/04 08:43:10;;;;;;;142.27;34.75;;;;;;;;;;5050535;28;20037;-71
2021/11/04 08:45:37;;;;;;;192.88;35.03;;;;;;;;;;5049953;28;20045;-75
2021/11/04 08:48:03;;;;;;;313.63;37.53;;;;;;;;;;5050375;28;20053;-71
2021/11/04 08:50:29;;;;;;;123.47;31.08;;;;;;;;;;5033969;28;20044;-71
2021/11/04 08:52:56;;;;;;;207.90;31.98;;;;;;;;;;5049787;28;20052;-71
2021/11/04 08:55:22;;;;;;;538.42;46.08;;;;;;;;;;5050179;28;20110;-71
2021/11/04 08:57:50;;;;;;;141.63;32.08;;;;;;;;;;5049705;28;20124;-71
2021/11/04 09:00:16;;;;;;;129.90;28.33;;;;;;;;;;5051535;28;20040;-71
2021/11/04 09:02:42;;;;;;;243.73;31.70;;;;;;;;;;5082952;28;20404;-72
2021/11/04 09:05:09;;;;;;;332.27;31.00;;;;;;;;;;5049631;28;20045;-72
2021/11/04 09:07:39;;;;;;;336.63;32.78;;;;;;;;;;5033659;28;20036;-71
2021/11/04 09:10:07;;;;;;;266.50;35.22;;;;;;;;;;5051328;28;20053;-71
2021/11/04 09:12:33;;;;;;;354.25;36.10;;;;;;;;;;5049390;28;20045;-71
2021/11/04 09:15:00;;;;;;;246.57;34.30;;;;;;;;;;5051472;28;20089;-71
2021/11/04 09:17:26;;;;;;;214.63;30.05;;;;;;;;;;5049664;28;20100;-71
2021/11/04 09:19:53;;;;;;;129.20;30.95;;;;;;;;;;5049874;28;20128;-71
2021/11/04 09:22:20;;;;;;;189.73;34.25;;;;;;;;;;5049763;28;20060;-71
2021/11/04 09:24:46;;;;;;;177.00;30.88;;;;;;;;;;5051011;28;20051;-71
2021/11/04 09:27:13;;;;;;;172.90;28.45;;;;;;;;;;5048829;28;20530;-71
2021/11/04 09:29:39;;;;;;;175.77;27.65;;;;;;;;;;5049700;28;20141;-71
2021/11/04 09:32:06;;;;;;;169.52;26.63;;;;;;;;;;5049880;28;20552;-71
2021/11/04 09:34:33;;;;;;;176.30;30.35;;;;;;;;;;5082288;28;20120;-71
2021/11/04 09:36:59;;;;;;;178.85;30.00;;;;;;;;;;5049247;28;20079;-71
2021/11/04 09:39:25;;;;;;;473.48;44.03;;;;;;;;;;5049378;28;20060;-71
2021/11/04 09:41:51;;;;;;;481.83;43.40;;;;;;;;;;5048791;28;20531;-71
2021/11/04 09:44:20;;;;;;;230.00;32.70;;;;;;;;;;5049208;28;20045;-71
2021/11/04 09:46:46;;;;;;;224.55;36.13;;;;;;;;;;5049221;28;20056;-71
2021/11/04 09:49:12;;;;;;;96.30;29.23;;;;;;;;;;5048737;28;20057;-72
2021/11/04 09:51:39;;;;;;;104.32;31.20;;;;;;;;;;5050547;28;20041;-71
2021/11/04 09:54:05;;;;;;;387.25;35.38;;;;;;;;;;5050323;28;20060;-71
2021/11/04 09:56:33;;;;;;;362.35;31.15;;;;;;;;;;5050275;28;20400;-71
2021/11/04 09:59:00;;;;;;;317.23;29.90;;;;;;;;;;5050874;28;20036;-71
2021/11/04 10:01:27;;;;;;;155.15;30.75;;;;;;;;;;5048519;28;20052;-71
2021/11/04 10:03:54;;;;;;;254.50;32.75;;;;;;;;;;5048983;28;20469;-71
2021/11/04 10:06:26;;;;;;;143.80;24.25;;;;;;;;;;5049225;28;20080;-71
2021/11/04 10:08:53;;;;;;;126.85;25.83;;;;;;;;;;5046337;28;20045;-72
2021/11/04 10:11:20;;;;;;;85.00;22.95;;;;;;;;;;5046706;28;20450;-71
2021/11/04 10:13:47;;;;;;;45.42;21.10;;;;;;;;;;5046804;28;20538;-71
2021/11/04 10:16:14;;;;;;;69.13;21.95;;;;;;;;;;5057657;28;20551;-71
2021/11/04 10:18:41;;;;;;;54.58;23.08;;;;;;;;;;5054797;28;20079;-71
2021/11/04 10:21:07;;;;;;;124.65;26.35;;;;;;;;;;5073221;28;20460;-72
2021/11/04 10:23:36;;;;;;;60.55;21.80;;;;;;;;;;5049155;28;20042;-71
2021/11/04 10:26:04;;;;;;;60.92;21.70;;;;;;;;;;5048252;28;20084;-70
2021/11/04 10:28:31;;;;;;;77.55;23.00;;;;;;;;;;5071880;28;20454;-72
2021/11/04 10:30:57;;;;;;;44.13;21.13;;;;;;;;;;5055034;28;20071;-70
2021/11/04 10:33:29;;;;;;;39.15;19.77;;;;;;;;;;5047089;28;20048;-70
2021/11/04 10:35:56;;;;;;;44.90;19.70;;;;;;;;;;5053892;28;20078;-70
2021/11/04 10:38:28;;;;;;;38.55;19.42;;;;;;;;;;5076156;28;20037;-70
2021/11/04 10:40:55;;;;;;;38.70;20.10;;;;;;;;;;5047586;28;20048;-69
2021/11/04 10:43:21;;;;;;;65.32;21.63;;;;;;;;;;5053315;28;20090;-70
2021/11/04 10:45:57;;;;;;;39.47;20.40;;;;;;;;;;5044824;28;20076;-70
2021/11/04 10:48:24;;;;;;;38.90;21.27;;;;;;;;;;5049087;28;20102;-70
2021/11/04 10:50:50;;;;;;;32.63;18.30;;;;;;;;;;5047386;28;20041;-69
2021/11/04 10:53:21;;;;;;;30.05;17.00;;;;;;;;;;5049461;28;20127;-69
2021/11/04 10:55:50;;;;;;;34.45;18.67;;;;;;;;;;5046704;28;20390;-69
2021/11/04 10:58:26;;;;;;;34.15;19.13;;;;;;;;;;5043094;28;20119;-70
2021/11/04 11:00:52;;;;;;;34.33;19.23;;;;;;;;;;5038568;28;20057;-71
2021/11/04 11:03:21;;;;;;;30.40;17.88;;;;;;;;;;5048135;28;20651;-69
2021/11/04 11:05:47;;;;;;;33.58;18.17;;;;;;;;;;5042441;28;20110;-70
2021/11/04 11:08:14;;;;;;;31.20;17.67;;;;;;;;;;5045606;28;20045;-77
2021/11/04 11:10:41;;;;;;;33.05;18.33;;;;;;;;;;5044968;28;20819;-70
2021/11/04 11:13:07;;;;;;;30.17;17.98;;;;;;;;;;5069490;28;20049;-70
2021/11/04 11:15:34;;;;;;;32.13;18.98;;;;;;;;;;5045379;28;20044;-69
2021/11/04 11:18:02;;;;;;;26.77;16.73;;;;;;;;;;5045103;28;20051;-70
2021/11/04 11:20:29;;;;;;;25.55;16.38;;;;;;;;;;5047758;28;20067;-70
2021/11/04 11:22:56;;;;;;;28.33;16.63;;;;;;;;;;5051761;28;20471;-71
2021/11/04 11:25:22;;;;;;;27.95;16.52;;;;;;;;;;5054057;28;20037;-71
2021/11/04 11:27:53;;;;;;;29.58;17.75;;;;;;;;;;5051271;28;20033;-71
2021/11/04 11:30:19;;;;;;;26.15;15.45;;;;;;;;;;5054191;28;20085;-71
2021/11/04 11:32:48;;;;;;;26.77;16.08;;;;;;;;;;5051947;28;20095;-71
2021/11/04 11:35:17;;;;;;;27.85;16.17;;;;;;;;;;5051671;28;20047;-71
2021/11/04 11:38:00;;;;;;;29.77;17.02;;;;;;;;;;5054965;28;20451;-71
2021/11/04 11:40:27;;;;;;;30.83;16.15;;;;;;;;;;5050293;28;20076;-71
2021/11/04 11:43:05;;;;;;;29.88;17.10;;;;;;;;;;5074806;28;20069;-71
2021/11/04 11:45:33;;;;;;;32.72;17.85;;;;;;;;;;5044946;28;20456;-71
2021/11/04 11:48:14;;;;;;;31.80;18.33;;;;;;;;;;5046875;28;20090;-71
2021/11/04 11:50:41;;;;;;;31.48;17.50;;;;;;;;;;5069290;28;20120;-71
2021/11/04 11:53:25;;;;;;;25.38;14.43;;;;;;;;;;5050767;28;20052;-70
2021/11/04 11:55:52;;;;;;;23.85;14.65;;;;;;;;;;5048591;28;20180;-70
2021/11/04 11:58:20;;;;;;;23.20;15.18;;;;;;;;;;5049104;28;20037;-70
2021/11/04 12:00:50;;;;;;;22.08;13.90;;;;;;;;;;5042985;28;20512;-71
2021/11/04 12:03:45;;;;;;;24.80;15.63;;;;;;;;;;5046099;28;20056;-70
2021/11/04 12:06:11;;;;;;;;;;;;;;;;;;5044871;28;20044;-70
2021/11/04 12:08:40;;;;;;;24.73;15.32;;;;;;;;;;5076786;28;20110;-69
2021/11/04 12:11:08;;;;;;;25.48;15.50;;;;;;;;;;5052335;28;20071;-70
2021/11/04 12:13:36;;;;;;;27.83;16.48;;;;;;;;;;5046780;28;20489;-70
2021/11/04 12:16:06;;;;;;;26.20;16.65;;;;;;;;;;5042177;28;20481;-70
2021/11/04 12:18:32;;;;;;;24.58;15.80;;;;;;;;;;5044760;28;20414;-70
2021/11/04 12:20:58;;;;;;;25.45;15.00;;;;;;;;;;5044148;28;20373;-70
2021/11/04 12:23:32;;;;;;;26.90;16.73;;;;;;;;;;5050790;28;20087;-70
2021/11/04 12:25:58;;;;;;;29.25;16.17;;;;;;;;;;5050346;28;20041;-70
2021/11/04 12:28:24;;;;;;;28.20;15.73;;;;;;;;;;5048701;28;20124;-70
2021/11/04 12:30:50;;;;;;;29.30;15.68;;;;;;;;;;5045208;28;20067;-70
2021/11/04 12:33:17;;;;;;;23.67;14.57;;;;;;;;;;5047068;28;20048;-70
2021/11/04 12:35:49;;;;;;;23.85;15.38;;;;;;;;;;5070739;28;20030;-70
2021/11/04 12:38:17;;;;;;;22.02;13.48;;;;;;;;;;5047347;28;20096;-70
2021/11/04 12:40:43;;;;;;;24.40;14.68;;;;;;;;;;5071354;28;20123;-70
2021/11/04 12:43:10;;;;;;;23.40;14.63;;;;;;;;;;5078441;28;20071;-70
2021/11/04 12:45:38;;;;;;;25.70;15.02;;;;;;;;;;5044283;28;20053;-70
2021/11/04 12:48:05;;;;;;;26.63;15.52;;;;;;;;;;5050852;28;20056;-70
2021/11/04 12:50:33;;;;;;;21.67;14.50;;;;;;;;;;5030834;28;20064;-69
2021/11/04 12:53:07;;;;;;;25.92;15.70;;;;;;;;;;5039445;28;20049;-70
2021/11/04 12:55:33;;;;;;;23.95;15.45;;;;;;;;;;5048843;28;20044;-70
2021/11/04 12:58:07;;;;;;;22.88;15.10;;;;;;;;;;5042144;28;20091;-70
2021/11/04 13:00:34;;;;;;;26.02;16.50;;;;;;;;;;5044748;28;20049;-70
2021/11/04 13:03:01;;;;;;;23.08;15.07;;;;;;;;;;5069877;28;20056;-70
2021/11/04 13:05:27;;;;;;;27.08;16.15;;;;;;;;;;5073700;28;20071;-70
2021/11/04 13:07:57;;;;;;;22.70;14.98;;;;;;;;;;5048309;28;20044;-70
2021/11/04 13:10:26;;;;;;;22.35;14.68;;;;;;;;;;5048369;28;20527;-70
2021/11/04 13:13:00;;;;;;;23.75;14.07;;;;;;;;;;5052334;28;20060;-70
2021/11/04 13:15:27;;;;;;;25.88;14.43;;;;;;;;;;5053098;28;20374;-70
2021/11/04 13:17:58;;;;;;;22.65;14.50;;;;;;;;;;5056177;28;20665;-70
2021/11/04 13:20:29;;;;;;;21.58;13.98;;;;;;;;;;5051298;28;20049;-70
2021/11/04 13:23:00;;;;;;;22.50;13.90;;;;;;;;;;5052014;28;20056;-70
2021/11/04 13:25:28;;;;;;;22.13;14.43;;;;;;;;;;5052219;28;20512;-70
2021/11/04 13:27:56;;;;;;;17.67;12.40;;;;;;;;;;5041108;28;20049;-70
2021/11/04 13:30:35;;;;;;;19.45;13.32;;;;;;;;;;5070347;28;20051;-70
2021/11/04 13:33:01;;;;;;;23.15;13.93;;;;;;;;;;5040087;28;20098;-70
2021/11/04 13:35:31;;;;;;;19.70;13.13;;;;;;;;;;5048577;28;20370;-70
2021/11/04 13:38:07;;;;;;;17.33;12.57;;;;;;;;;;5045456;28;20052;-70
2021/11/04 13:40:45;;;;;;;18.20;13.23;;;;;;;;;;5045060;28;20049;-70
2021/11/04 13:43:12;;;;;;;21.77;14.60;;;;;;;;;;5045889;28;20041;-70
2021/11/04 13:45:40;;;;;;;22.83;14.27;;;;;;;;;;5045430;28;20106;-70
2021/11/04 13:48:07;;;;;;;20.42;13.25;;;;;;;;;;5048314;28;20053;-70
2021/11/04 13:50:36;;;;;;;19.67;12.57;;;;;;;;;;5045081;28;21478;-70
2021/11/04 13:53:11;;;;;;;21.45;13.68;;;;;;;;;;5050944;28;20102;-71
2021/11/04 13:55:37;;;;;;;24.08;13.93;;;;;;;;;;5049110;28;20045;-70
2021/11/04 13:58:04;;;;;;;18.40;12.60;;;;;;;;;;5050446;28;20071;-70
2021/11/04 14:00:33;;;;;;;18.70;12.38;;;;;;;;;;5048802;28;20059;-70
2021/11/04 14:03:01;;;;;;;17.85;12.57;;;;;;;;;;5048495;28;20061;-70
2021/11/04 14:05:46;;;;;;;16.35;11.57;;;;;;;;;;5049219;28;20461;-70
2021/11/04 14:08:13;;;;;;;16.15;11.05;;;;;;;;;;5048427;28;20045;-70
2021/11/04 14:10:39;;;;;;;14.77;11.18;;;;;;;;;;5050437;28;20048;-70